VKG1BF EKCH-EDDH
Flight info
| Callsign | VKG1BF |
|---|---|
| Flight time | N/A |
| Altitude | 22000 |
| Route | NEXEN T503 MICOS N850 BOGMU BOGMU3P |
| Aircraft | A321/M-SDE3FGHIRWY/LB1 |
Departure
| Time | 2026-04-24 20:29 |
|---|---|
| Airport | Copenhagen Kastrup Airport (EKCH) |
Arrival
| Time | N/A |
|---|---|
| Airport | Hamburg Helmut Schmidt Airport (EDDH) |
| Time | Latitude | Longitude | Altitude | Speed | Heading |
|---|---|---|---|---|---|
| 2026-04-24 19:52 | 55.62898 | 12.63524 | 17 ft | 0 kts | 41° |
| 2026-04-24 20:15 | 55.62887 | 12.63506 | 18 ft | 4 kts | 42° |
| 2026-04-24 20:15 | 55.62871 | 12.63481 | 17 ft | 4 kts | 42° |
| 2026-04-24 20:15 | 55.62854 | 12.63447 | 19 ft | 2 kts | 63° |
| 2026-04-24 20:16 | 55.62843 | 12.63415 | 17 ft | 4 kts | 46° |
| 2026-04-24 20:16 | 55.62823 | 12.63386 | 19 ft | 2 kts | 33° |
| 2026-04-24 20:16 | 55.62822 | 12.63383 | 17 ft | 0 kts | 33° |
| 2026-04-24 20:18 | 55.62823 | 12.63385 | 17 ft | 2 kts | 33° |
| 2026-04-24 20:19 | 55.62846 | 12.63424 | 18 ft | 6 kts | 59° |
| 2026-04-24 20:19 | 55.62854 | 12.63496 | 19 ft | 5 kts | 87° |
| 2026-04-24 20:19 | 55.62855 | 12.63560 | 17 ft | 6 kts | 87° |
| 2026-04-24 20:19 | 55.62858 | 12.63649 | 17 ft | 7 kts | 87° |
| 2026-04-24 20:20 | 55.62856 | 12.63728 | 17 ft | 6 kts | 99° |
| 2026-04-24 20:20 | 55.62850 | 12.63788 | 17 ft | 5 kts | 103° |
| 2026-04-24 20:20 | 55.62839 | 12.63860 | 17 ft | 7 kts | 105° |
| 2026-04-24 20:20 | 55.62814 | 12.63943 | 19 ft | 11 kts | 139° |
| 2026-04-24 20:21 | 55.62748 | 12.63928 | 18 ft | 10 kts | 212° |
| 2026-04-24 20:21 | 55.62689 | 12.63863 | 19 ft | 10 kts | 210° |
| 2026-04-24 20:21 | 55.62634 | 12.63896 | 18 ft | 10 kts | 123° |
| 2026-04-24 20:21 | 55.62590 | 12.64017 | 17 ft | 13 kts | 123° |
| 2026-04-24 20:22 | 55.62540 | 12.64155 | 17 ft | 13 kts | 123° |
| 2026-04-24 20:22 | 55.62493 | 12.64280 | 18 ft | 11 kts | 124° |
| 2026-04-24 20:22 | 55.62447 | 12.64386 | 17 ft | 10 kts | 129° |
| 2026-04-24 20:22 | 55.62379 | 12.64445 | 17 ft | 15 kts | 191° |
| 2026-04-24 20:23 | 55.62276 | 12.64398 | 16 ft | 16 kts | 191° |
| 2026-04-24 20:23 | 55.62161 | 12.64420 | 16 ft | 16 kts | 169° |
| 2026-04-24 20:23 | 55.62056 | 12.64455 | 17 ft | 15 kts | 169° |
| 2026-04-24 20:23 | 55.61960 | 12.64485 | 18 ft | 14 kts | 169° |
| 2026-04-24 20:24 | 55.61865 | 12.64519 | 17 ft | 16 kts | 169° |
| 2026-04-24 20:24 | 55.61755 | 12.64556 | 17 ft | 16 kts | 169° |
| 2026-04-24 20:24 | 55.61639 | 12.64528 | 17 ft | 17 kts | 210° |
| 2026-04-24 20:24 | 55.61541 | 12.64416 | 17 ft | 16 kts | 213° |
| 2026-04-24 20:25 | 55.61448 | 12.64308 | 19 ft | 16 kts | 214° |
| 2026-04-24 20:25 | 55.61360 | 12.64205 | 19 ft | 15 kts | 213° |
| 2026-04-24 20:25 | 55.61278 | 12.64112 | 18 ft | 14 kts | 213° |
| 2026-04-24 20:25 | 55.61187 | 12.64008 | 17 ft | 18 kts | 212° |
| 2026-04-24 20:26 | 55.61084 | 12.63890 | 19 ft | 17 kts | 213° |
| 2026-04-24 20:26 | 55.60987 | 12.63776 | 17 ft | 16 kts | 213° |
| 2026-04-24 20:26 | 55.60902 | 12.63677 | 17 ft | 10 kts | 213° |
| 2026-04-24 20:26 | 55.60869 | 12.63638 | 17 ft | 0 kts | 213° |
| 2026-04-24 20:27 | 55.60854 | 12.63621 | 17 ft | 8 kts | 213° |
| 2026-04-24 20:27 | 55.60795 | 12.63586 | 18 ft | 11 kts | 166° |
| 2026-04-24 20:27 | 55.60734 | 12.63684 | 18 ft | 11 kts | 130° |
| 2026-04-24 20:27 | 55.60686 | 12.63784 | 19 ft | 10 kts | 129° |
| 2026-04-24 20:28 | 55.60671 | 12.63871 | 19 ft | 7 kts | 62° |
| 2026-04-24 20:28 | 55.60709 | 12.63922 | 19 ft | 7 kts | 40° |
| 2026-04-24 20:28 | 55.60775 | 12.64026 | 20 ft | 30 kts | 41° |
| 2026-04-24 20:28 | 55.61151 | 12.64602 | 17 ft | 109 kts | 41° |
| 2026-04-24 20:29 | 55.61599 | 12.65298 | 16 ft | 149 kts | 41° |
| 2026-04-24 20:29 | 55.62790 | 12.67162 | 471 ft | 175 kts | 40° |
| 2026-04-24 20:29 | 55.63698 | 12.68574 | 1197 ft | 173 kts | 36° |
| 2026-04-24 20:29 | 55.64601 | 12.69985 | 1894 ft | 174 kts | 36° |
| 2026-04-24 20:30 | 55.65527 | 12.71419 | 2480 ft | 179 kts | 36° |
| 2026-04-24 20:30 | 55.66489 | 12.72843 | 2953 ft | 183 kts | 35° |
| 2026-04-24 20:30 | 55.67498 | 12.74296 | 3313 ft | 193 kts | 34° |
| 2026-04-24 20:30 | 55.68556 | 12.75886 | 3604 ft | 207 kts | 42° |
| 2026-04-24 20:31 | 55.69375 | 12.78100 | 3918 ft | 223 kts | 64° |
| 2026-04-24 20:31 | 55.69680 | 12.80515 | 4267 ft | 233 kts | 83° |
| 2026-04-24 20:31 | 55.69516 | 12.83379 | 4776 ft | 237 kts | 102° |
| 2026-04-24 20:31 | 55.68839 | 12.86062 | 5206 ft | 243 kts | 122° |
| 2026-04-24 20:32 | 55.67663 | 12.88274 | 5475 ft | 255 kts | 144° |
| 2026-04-24 20:32 | 55.66045 | 12.89675 | 5879 ft | 261 kts | 165° |
| 2026-04-24 20:32 | 55.64295 | 12.90628 | 6412 ft | 266 kts | 166° |
| 2026-04-24 20:32 | 55.62424 | 12.91236 | 6723 ft | 281 kts | 181° |
| 2026-04-24 20:33 | 55.60457 | 12.90887 | 7134 ft | 288 kts | 200° |
| 2026-04-24 20:33 | 55.58622 | 12.89469 | 7687 ft | 289 kts | 218° |
| 2026-04-24 20:33 | 55.57075 | 12.87262 | 8372 ft | 285 kts | 232° |
| 2026-04-24 20:33 | 55.55737 | 12.84724 | 9114 ft | 287 kts | 232° |
| 2026-04-24 20:34 | 55.54341 | 12.82141 | 9900 ft | 287 kts | 232° |
| 2026-04-24 20:34 | 55.52964 | 12.79642 | 10587 ft | 288 kts | 232° |
| 2026-04-24 20:34 | 55.51550 | 12.77125 | 11287 ft | 289 kts | 231° |
| 2026-04-24 20:34 | 55.50118 | 12.74627 | 12003 ft | 290 kts | 231° |
| 2026-04-24 20:35 | 55.48668 | 12.72159 | 12729 ft | 289 kts | 231° |
| 2026-04-24 20:35 | 55.47206 | 12.69732 | 13453 ft | 289 kts | 231° |
| 2026-04-24 20:35 | 55.45836 | 12.67038 | 13640 ft | 303 kts | 240° |
| 2026-04-24 20:35 | 55.44584 | 12.63929 | 13792 ft | 320 kts | 243° |
| 2026-04-24 20:36 | 55.43292 | 12.60587 | 13909 ft | 340 kts | 241° |